sensor_id;sensor_type;location;lat;lon;timestamp;temperature;humidity
25468;DHT22;13384;24.794;110.498;2022-12-18T00:02:49;12.30;81.40
25468;DHT22;13384;24.794;110.498;2022-12-18T00:05:20;12.30;81.10
25468;DHT22;13384;24.794;110.498;2022-12-18T00:07:50;12.30;82.00
25468;DHT22;13384;24.794;110.498;2022-12-18T00:10:20;12.30;82.10
25468;DHT22;13384;24.794;110.498;2022-12-18T00:12:51;12.30;82.00
25468;DHT22;13384;24.794;110.498;2022-12-18T00:15:21;12.30;81.80
25468;DHT22;13384;24.794;110.498;2022-12-18T00:17:52;12.30;81.90
25468;DHT22;13384;24.794;110.498;2022-12-18T00:20:23;12.30;82.20
25468;DHT22;13384;24.794;110.498;2022-12-18T00:22:55;12.30;81.50
25468;DHT22;13384;24.794;110.498;2022-12-18T00:25:26;12.30;81.60
25468;DHT22;13384;24.794;110.498;2022-12-18T00:27:57;12.20;80.80
25468;DHT22;13384;24.794;110.498;2022-12-18T00:30:30;12.20;82.30
25468;DHT22;13384;24.794;110.498;2022-12-18T00:33:00;12.20;78.90
25468;DHT22;13384;24.794;110.498;2022-12-18T00:35:34;12.20;81.50
25468;DHT22;13384;24.794;110.498;2022-12-18T00:38:05;12.20;77.70
25468;DHT22;13384;24.794;110.498;2022-12-18T00:40:36;12.10;77.50
25468;DHT22;13384;24.794;110.498;2022-12-18T00:43:06;12.20;81.60
25468;DHT22;13384;24.794;110.498;2022-12-18T00:45:37;12.10;80.30
25468;DHT22;13384;24.794;110.498;2022-12-18T00:48:27;12.20;82.80
25468;DHT22;13384;24.794;110.498;2022-12-18T00:51:02;12.20;78.20
25468;DHT22;13384;24.794;110.498;2022-12-18T00:53:32;12.30;78.40
25468;DHT22;13384;24.794;110.498;2022-12-18T00:56:06;12.30;80.00
25468;DHT22;13384;24.794;110.498;2022-12-18T00:58:50;12.30;79.90
25468;DHT22;13384;24.794;110.498;2022-12-18T01:01:21;12.30;79.70
25468;DHT22;13384;24.794;110.498;2022-12-18T01:03:52;12.00;79.50
25468;DHT22;13384;24.794;110.498;2022-12-18T01:06:22;11.80;71.80
25468;DHT22;13384;24.794;110.498;2022-12-18T01:08:53;11.70;77.10
25468;DHT22;13384;24.794;110.498;2022-12-18T01:11:24;11.70;76.60
25468;DHT22;13384;24.794;110.498;2022-12-18T01:13:56;11.70;75.40
25468;DHT22;13384;24.794;110.498;2022-12-18T01:16:26;11.60;75.50
25468;DHT22;13384;24.794;110.498;2022-12-18T01:18:57;11.60;76.80
25468;DHT22;13384;24.794;110.498;2022-12-18T01:21:28;11.80;82.40
25468;DHT22;13384;24.794;110.498;2022-12-18T01:24:00;11.90;77.90
25468;DHT22;13384;24.794;110.498;2022-12-18T01:26:30;12.00;78.60
25468;DHT22;13384;24.794;110.498;2022-12-18T01:29:05;12.00;77.10
25468;DHT22;13384;24.794;110.498;2022-12-18T01:31:36;12.00;75.40
25468;DHT22;13384;24.794;110.498;2022-12-18T01:34:06;12.00;78.60
25468;DHT22;13384;24.794;110.498;2022-12-18T01:36:38;12.00;76.70
25468;DHT22;13384;24.794;110.498;2022-12-18T01:39:13;11.90;74.20
25468;DHT22;13384;24.794;110.498;2022-12-18T01:41:45;11.90;80.20
25468;DHT22;13384;24.794;110.498;2022-12-18T01:53:04;12.20;79.80
25468;DHT22;13384;24.794;110.498;2022-12-18T01:55:40;12.20;77.30
25468;DHT22;13384;24.794;110.498;2022-12-18T01:58:13;12.10;74.10
25468;DHT22;13384;24.794;110.498;2022-12-18T02:00:44;12.10;78.00
25468;DHT22;13384;24.794;110.498;2022-12-18T02:03:16;12.00;73.80
25468;DHT22;13384;24.794;110.498;2022-12-18T02:08:48;12.10;78.70
25468;DHT22;13384;24.794;110.498;2022-12-18T02:11:31;12.10;79.30
25468;DHT22;13384;24.794;110.498;2022-12-18T02:14:16;12.20;76.30
25468;DHT22;13384;24.794;110.498;2022-12-18T02:16:53;12.20;75.50
25468;DHT22;13384;24.794;110.498;2022-12-18T02:22:39;12.00;76.00
25468;DHT22;13384;24.794;110.498;2022-12-18T02:28:06;12.20;74.90
25468;DHT22;13384;24.794;110.498;2022-12-18T02:30:39;12.20;75.50
25468;DHT22;13384;24.794;110.498;2022-12-18T02:33:13;12.20;77.00
25468;DHT22;13384;24.794;110.498;2022-12-18T02:35:45;12.20;78.50
25468;DHT22;13384;24.794;110.498;2022-12-18T02:38:28;12.20;74.00
25468;DHT22;13384;24.794;110.498;2022-12-18T02:41:06;12.10;68.80
25468;DHT22;13384;24.794;110.498;2022-12-18T02:43:38;12.20;79.60
25468;DHT22;13384;24.794;110.498;2022-12-18T02:46:33;12.30;78.40
25468;DHT22;13384;24.794;110.498;2022-12-18T02:49:31;12.30;75.40
25468;DHT22;13384;24.794;110.498;2022-12-18T02:55:33;12.40;71.50
25468;DHT22;13384;24.794;110.498;2022-12-18T02:58:34;12.20;68.30
25468;DHT22;13384;24.794;110.498;2022-12-18T03:06:35;12.30;71.20
25468;DHT22;13384;24.794;110.498;2022-12-18T03:09:34;12.30;72.40
25468;DHT22;13384;24.794;110.498;2022-12-18T03:17:57;12.50;75.20
25468;DHT22;13384;24.794;110.498;2022-12-18T03:20:34;12.40;71.40
25468;DHT22;13384;24.794;110.498;2022-12-18T03:23:09;12.50;72.20
25468;DHT22;13384;24.794;110.498;2022-12-18T03:25:42;12.50;73.10
25468;DHT22;13384;24.794;110.498;2022-12-18T03:28:21;12.50;74.90
25468;DHT22;13384;24.794;110.498;2022-12-18T03:31:01;12.50;71.40
25468;DHT22;13384;24.794;110.498;2022-12-18T03:33:57;12.60;68.60
25468;DHT22;13384;24.794;110.498;2022-12-18T03:36:39;12.50;70.00
25468;DHT22;13384;24.794;110.498;2022-12-18T03:39:10;12.50;64.90
25468;DHT22;13384;24.794;110.498;2022-12-18T03:42:10;12.60;67.80
25468;DHT22;13384;24.794;110.498;2022-12-18T03:54:02;12.70;67.90
25468;DHT22;13384;24.794;110.498;2022-12-18T03:57:18;12.60;68.20
25468;DHT22;13384;24.794;110.498;2022-12-18T04:00:03;12.60;73.30
25468;DHT22;13384;24.794;110.498;2022-12-18T04:02:56;12.60;69.90
25468;DHT22;13384;24.794;110.498;2022-12-18T04:05:35;12.70;70.90
25468;DHT22;13384;24.794;110.498;2022-12-18T04:08:08;12.60;69.80
25468;DHT22;13384;24.794;110.498;2022-12-18T04:10:43;12.60;64.30
25468;DHT22;13384;24.794;110.498;2022-12-18T04:13:23;12.70;75.40
25468;DHT22;13384;24.794;110.498;2022-12-18T04:15:54;12.60;71.60
25468;DHT22;13384;24.794;110.498;2022-12-18T04:18:25;12.60;69.10
25468;DHT22;13384;24.794;110.498;2022-12-18T04:20:56;12.60;67.80
25468;DHT22;13384;24.794;110.498;2022-12-18T04:23:29;12.70;73.50
25468;DHT22;13384;24.794;110.498;2022-12-18T04:26:00;12.60;69.30
25468;DHT22;13384;24.794;110.498;2022-12-18T04:28:53;12.60;66.80
25468;DHT22;13384;24.794;110.498;2022-12-18T04:31:33;12.70;74.10
25468;DHT22;13384;24.794;110.498;2022-12-18T04:34:04;12.70;72.10
25468;DHT22;13384;24.794;110.498;2022-12-18T04:36:41;12.70;73.20
25468;DHT22;13384;24.794;110.498;2022-12-18T04:39:16;12.70;66.40
25468;DHT22;13384;24.794;110.498;2022-12-18T04:41:49;12.70;68.40
25468;DHT22;13384;24.794;110.498;2022-12-18T04:44:20;12.70;72.20
25468;DHT22;13384;24.794;110.498;2022-12-18T04:46:51;12.70;70.20
25468;DHT22;13384;24.794;110.498;2022-12-18T04:49:25;12.70;69.00
25468;DHT22;13384;24.794;110.498;2022-12-18T04:52:00;12.70;67.70
25468;DHT22;13384;24.794;110.498;2022-12-18T04:54:31;12.70;64.60
25468;DHT22;13384;24.794;110.498;2022-12-18T04:57:02;12.70;67.70
25468;DHT22;13384;24.794;110.498;2022-12-18T04:59:35;12.70;69.40
25468;DHT22;13384;24.794;110.498;2022-12-18T05:02:06;12.70;71.10
25468;DHT22;13384;24.794;110.498;2022-12-18T05:04:37;12.80;72.60
25468;DHT22;13384;24.794;110.498;2022-12-18T05:07:09;12.70;64.20
25468;DHT22;13384;24.794;110.498;2022-12-18T05:09:39;12.80;74.00
25468;DHT22;13384;24.794;110.498;2022-12-18T05:12:10;12.80;68.60
25468;DHT22;13384;24.794;110.498;2022-12-18T05:14:40;12.80;68.00
25468;DHT22;13384;24.794;110.498;2022-12-18T05:17:11;12.80;68.60
25468;DHT22;13384;24.794;110.498;2022-12-18T05:19:42;12.80;66.50
25468;DHT22;13384;24.794;110.498;2022-12-18T05:22:13;12.80;71.70
25468;DHT22;13384;24.794;110.498;2022-12-18T05:24:45;12.80;72.50
25468;DHT22;13384;24.794;110.498;2022-12-18T05:27:24;12.80;70.70
25468;DHT22;13384;24.794;110.498;2022-12-18T05:29:56;12.80;65.50
25468;DHT22;13384;24.794;110.498;2022-12-18T05:32:30;12.70;65.70
25468;DHT22;13384;24.794;110.498;2022-12-18T05:35:01;12.80;67.10
25468;DHT22;13384;24.794;110.498;2022-12-18T05:37:42;12.80;70.40
25468;DHT22;13384;24.794;110.498;2022-12-18T05:40:18;12.80;69.90
25468;DHT22;13384;24.794;110.498;2022-12-18T05:42:48;12.80;69.40
25468;DHT22;13384;24.794;110.498;2022-12-18T05:45:24;12.80;63.70
25468;DHT22;13384;24.794;110.498;2022-12-18T05:47:56;12.80;69.40
25468;DHT22;13384;24.794;110.498;2022-12-18T05:50:27;12.80;64.40
25468;DHT22;13384;24.794;110.498;2022-12-18T05:53:14;12.70;68.30
25468;DHT22;13384;24.794;110.498;2022-12-18T05:55:45;12.80;66.80
25468;DHT22;13384;24.794;110.498;2022-12-18T05:58:16;12.80;65.90
25468;DHT22;13384;24.794;110.498;2022-12-18T06:00:48;12.80;70.30
25468;DHT22;13384;24.794;110.498;2022-12-18T06:03:19;12.80;65.90
25468;DHT22;13384;24.794;110.498;2022-12-18T06:05:50;12.80;62.70
25468;DHT22;13384;24.794;110.498;2022-12-18T06:08:20;12.80;64.90
25468;DHT22;13384;24.794;110.498;2022-12-18T06:10:52;12.80;66.70
25468;DHT22;13384;24.794;110.498;2022-12-18T06:13:24;12.80;68.60
25468;DHT22;13384;24.794;110.498;2022-12-18T06:15:55;12.80;66.60
25468;DHT22;13384;24.794;110.498;2022-12-18T06:18:31;12.80;66.50
25468;DHT22;13384;24.794;110.498;2022-12-18T06:21:02;12.80;66.00
25468;DHT22;13384;24.794;110.498;2022-12-18T06:23:32;12.90;69.70
25468;DHT22;13384;24.794;110.498;2022-12-18T06:26:07;12.90;67.20
25468;DHT22;13384;24.794;110.498;2022-12-18T06:28:58;12.90;66.60
25468;DHT22;13384;24.794;110.498;2022-12-18T06:31:28;12.90;67.70
25468;DHT22;13384;24.794;110.498;2022-12-18T06:34:14;12.90;64.20
25468;DHT22;13384;24.794;110.498;2022-12-18T06:36:59;12.90;70.60
25468;DHT22;13384;24.794;110.498;2022-12-18T06:39:31;12.90;66.90
25468;DHT22;13384;24.794;110.498;2022-12-18T06:42:04;12.90;69.70
25468;DHT22;13384;24.794;110.498;2022-12-18T06:44:35;12.90;67.30
25468;DHT22;13384;24.794;110.498;2022-12-18T06:47:05;12.90;71.90
25468;DHT22;13384;24.794;110.498;2022-12-18T06:49:38;12.90;72.70
25468;DHT22;13384;24.794;110.498;2022-12-18T06:52:22;12.90;65.70
25468;DHT22;13384;24.794;110.498;2022-12-18T06:54:57;13.00;66.90
25468;DHT22;13384;24.794;110.498;2022-12-18T06:57:29;12.90;65.60
25468;DHT22;13384;24.794;110.498;2022-12-18T06:59:59;12.90;68.60
25468;DHT22;13384;24.794;110.498;2022-12-18T07:02:30;12.90;64.70
25468;DHT22;13384;24.794;110.498;2022-12-18T07:05:01;12.90;64.40
25468;DHT22;13384;24.794;110.498;2022-12-18T07:07:38;12.90;72.10
25468;DHT22;13384;24.794;110.498;2022-12-18T07:10:09;12.90;69.10
25468;DHT22;13384;24.794;110.498;2022-12-18T07:12:40;12.90;70.60
25468;DHT22;13384;24.794;110.498;2022-12-18T07:15:15;13.00;71.90
25468;DHT22;13384;24.794;110.498;2022-12-18T07:17:46;13.00;73.80
25468;DHT22;13384;24.794;110.498;2022-12-18T07:20:19;13.00;73.80
25468;DHT22;13384;24.794;110.498;2022-12-18T07:22:55;13.00;69.90
25468;DHT22;13384;24.794;110.498;2022-12-18T07:25:49;13.00;70.50
25468;DHT22;13384;24.794;110.498;2022-12-18T07:28:19;13.00;72.50
25468;DHT22;13384;24.794;110.498;2022-12-18T07:30:51;13.00;73.70
25468;DHT22;13384;24.794;110.498;2022-12-18T07:33:25;13.00;70.50
25468;DHT22;13384;24.794;110.498;2022-12-18T07:35:58;13.00;68.50
25468;DHT22;13384;24.794;110.498;2022-12-18T07:38:34;13.00;72.50
25468;DHT22;13384;24.794;110.498;2022-12-18T07:41:10;13.00;74.40
25468;DHT22;13384;24.794;110.498;2022-12-18T07:43:41;13.00;70.40
25468;DHT22;13384;24.794;110.498;2022-12-18T07:46:14;13.00;69.60
25468;DHT22;13384;24.794;110.498;2022-12-18T07:48:48;13.00;72.10
25468;DHT22;13384;24.794;110.498;2022-12-18T07:51:19;13.00;73.30
25468;DHT22;13384;24.794;110.498;2022-12-18T07:53:51;13.00;68.30
25468;DHT22;13384;24.794;110.498;2022-12-18T07:56:23;13.00;70.40
25468;DHT22;13384;24.794;110.498;2022-12-18T07:58:58;13.00;69.70
25468;DHT22;13384;24.794;110.498;2022-12-18T08:01:29;13.00;68.40
25468;DHT22;13384;24.794;110.498;2022-12-18T08:04:03;13.00;70.40
25468;DHT22;13384;24.794;110.498;2022-12-18T08:06:34;13.00;66.20
25468;DHT22;13384;24.794;110.498;2022-12-18T08:09:05;13.00;70.50
25468;DHT22;13384;24.794;110.498;2022-12-18T08:11:38;13.00;64.90
25468;DHT22;13384;24.794;110.498;2022-12-18T08:14:10;13.00;65.20
25468;DHT22;13384;24.794;110.498;2022-12-18T08:16:41;13.00;70.10
25468;DHT22;13384;24.794;110.498;2022-12-18T08:19:15;13.00;66.20
25468;DHT22;13384;24.794;110.498;2022-12-18T08:21:48;13.00;64.80
25468;DHT22;13384;24.794;110.498;2022-12-18T08:24:42;13.00;69.80
25468;DHT22;13384;24.794;110.498;2022-12-18T08:27:13;13.00;70.50
25468;DHT22;13384;24.794;110.498;2022-12-18T08:29:58;13.00;70.40
25468;DHT22;13384;24.794;110.498;2022-12-18T08:32:38;13.00;68.30
25468;DHT22;13384;24.794;110.498;2022-12-18T08:35:09;13.00;69.70
25468;DHT22;13384;24.794;110.498;2022-12-18T08:37:52;13.10;72.30
25468;DHT22;13384;24.794;110.498;2022-12-18T08:40:23;13.00;72.70
25468;DHT22;13384;24.794;110.498;2022-12-18T08:42:55;13.00;73.30
25468;DHT22;13384;24.794;110.498;2022-12-18T08:45:43;13.00;71.60
25468;DHT22;13384;24.794;110.498;2022-12-18T08:48:13;13.00;66.80
25468;DHT22;13384;24.794;110.498;2022-12-18T08:50:57;13.00;64.60
25468;DHT22;13384;24.794;110.498;2022-12-18T08:53:29;13.00;68.60
25468;DHT22;13384;24.794;110.498;2022-12-18T08:56:04;13.00;73.40
25468;DHT22;13384;24.794;110.498;2022-12-18T08:58:35;13.00;70.00
25468;DHT22;13384;24.794;110.498;2022-12-18T09:01:09;13.00;73.80
25468;DHT22;13384;24.794;110.498;2022-12-18T09:03:40;13.00;72.20
25468;DHT22;13384;24.794;110.498;2022-12-18T09:06:18;13.00;70.40
25468;DHT22;13384;24.794;110.498;2022-12-18T09:09:03;13.00;72.40
25468;DHT22;13384;24.794;110.498;2022-12-18T09:11:37;13.00;74.90
25468;DHT22;13384;24.794;110.498;2022-12-18T09:14:10;13.00;76.20
25468;DHT22;13384;24.794;110.498;2022-12-18T09:16:41;13.00;76.70
25468;DHT22;13384;24.794;110.498;2022-12-18T09:19:12;13.00;75.20
25468;DHT22;13384;24.794;110.498;2022-12-18T09:21:42;12.90;76.70
25468;DHT22;13384;24.794;110.498;2022-12-18T09:24:18;12.90;76.80
25468;DHT22;13384;24.794;110.498;2022-12-18T09:26:55;12.90;77.70
25468;DHT22;13384;24.794;110.498;2022-12-18T09:29:39;12.90;77.90
25468;DHT22;13384;24.794;110.498;2022-12-18T09:32:09;12.90;78.40
25468;DHT22;13384;24.794;110.498;2022-12-18T09:34:46;12.90;78.70
25468;DHT22;13384;24.794;110.498;2022-12-18T09:37:18;12.90;78.40
25468;DHT22;13384;24.794;110.498;2022-12-18T09:39:49;12.90;78.90
25468;DHT22;13384;24.794;110.498;2022-12-18T09:42:26;12.90;78.60
25468;DHT22;13384;24.794;110.498;2022-12-18T09:44:58;12.90;79.30
25468;DHT22;13384;24.794;110.498;2022-12-18T09:47:36;12.90;79.40
25468;DHT22;13384;24.794;110.498;2022-12-18T09:50:33;12.90;78.50
25468;DHT22;13384;24.794;110.498;2022-12-18T09:53:17;12.90;79.60
25468;DHT22;13384;24.794;110.498;2022-12-18T09:55:51;12.80;79.80
25468;DHT22;13384;24.794;110.498;2022-12-18T09:58:58;12.90;80.00
25468;DHT22;13384;24.794;110.498;2022-12-18T10:01:29;12.80;79.60
25468;DHT22;13384;24.794;110.498;2022-12-18T10:04:10;12.80;80.30
25468;DHT22;13384;24.794;110.498;2022-12-18T10:15:43;12.80;80.80
25468;DHT22;13384;24.794;110.498;2022-12-18T10:20:56;12.70;81.10
25468;DHT22;13384;24.794;110.498;2022-12-18T10:26:28;12.70;81.20
25468;DHT22;13384;24.794;110.498;2022-12-18T10:28:59;12.70;81.60
25468;DHT22;13384;24.794;110.498;2022-12-18T10:31:33;12.70;81.60
25468;DHT22;13384;24.794;110.498;2022-12-18T10:34:03;12.70;81.80
25468;DHT22;13384;24.794;110.498;2022-12-18T10:36:34;12.70;81.80
25468;DHT22;13384;24.794;110.498;2022-12-18T10:39:23;12.70;81.90
25468;DHT22;13384;24.794;110.498;2022-12-18T10:42:16;12.70;81.80
25468;DHT22;13384;24.794;110.498;2022-12-18T10:45:19;12.60;82.10
25468;DHT22;13384;24.794;110.498;2022-12-18T10:48:20;12.60;82.20
25468;DHT22;13384;24.794;110.498;2022-12-18T10:50:52;12.70;82.30
25468;DHT22;13384;24.794;110.498;2022-12-18T10:53:42;12.60;83.00
25468;DHT22;13384;24.794;110.498;2022-12-18T10:56:21;12.60;82.40
25468;DHT22;13384;24.794;110.498;2022-12-18T10:59:01;12.60;82.50
25468;DHT22;13384;24.794;110.498;2022-12-18T11:01:54;12.60;82.50
25468;DHT22;13384;24.794;110.498;2022-12-18T11:04:28;12.60;82.60
25468;DHT22;13384;24.794;110.498;2022-12-18T11:07:07;12.60;82.60
25468;DHT22;13384;24.794;110.498;2022-12-18T11:10:03;12.60;82.60
25468;DHT22;13384;24.794;110.498;2022-12-18T11:12:34;12.60;82.70
25468;DHT22;13384;24.794;110.498;2022-12-18T11:15:05;12.60;82.70
25468;DHT22;13384;24.794;110.498;2022-12-18T11:18:03;12.60;82.50
25468;DHT22;13384;24.794;110.498;2022-12-18T11:20:37;12.60;82.90
25468;DHT22;13384;24.794;110.498;2022-12-18T11:23:13;12.50;83.00
25468;DHT22;13384;24.794;110.498;2022-12-18T11:25:57;12.60;83.00
25468;DHT22;13384;24.794;110.498;2022-12-18T11:28:46;12.60;83.10
25468;DHT22;13384;24.794;110.498;2022-12-18T11:31:27;12.60;82.60
25468;DHT22;13384;24.794;110.498;2022-12-18T11:34:27;12.50;83.90
25468;DHT22;13384;24.794;110.498;2022-12-18T11:37:00;12.50;83.20
25468;DHT22;13384;24.794;110.498;2022-12-18T11:39:56;12.50;83.20
25468;DHT22;13384;24.794;110.498;2022-12-18T11:42:58;12.50;83.30
25468;DHT22;13384;24.794;110.498;2022-12-18T11:46:10;12.50;83.30
25468;DHT22;13384;24.794;110.498;2022-12-18T11:49:07;12.50;83.40
25468;DHT22;13384;24.794;110.498;2022-12-18T11:51:48;12.50;83.40
25468;DHT22;13384;24.794;110.498;2022-12-18T11:54:21;12.50;83.50
25468;DHT22;13384;24.794;110.498;2022-12-18T11:57:25;12.50;83.50
25468;DHT22;13384;24.794;110.498;2022-12-18T12:00:18;12.50;83.60
25468;DHT22;13384;24.794;110.498;2022-12-18T12:08:21;12.50;83.80
25468;DHT22;13384;24.794;110.498;2022-12-18T12:15:04;12.50;83.90
25468;DHT22;13384;24.794;110.498;2022-12-18T12:25:44;12.40;84.00
25468;DHT22;13384;24.794;110.498;2022-12-18T12:32:13;12.40;84.10
25468;DHT22;13384;24.794;110.498;2022-12-18T12:38:17;12.40;84.20
25468;DHT22;13384;24.794;110.498;2022-12-18T12:41:05;12.40;84.10
25468;DHT22;13384;24.794;110.498;2022-12-18T12:44:00;12.40;84.20
25468;DHT22;13384;24.794;110.498;2022-12-18T12:46:48;12.40;84.10
25468;DHT22;13384;24.794;110.498;2022-12-18T12:49:21;12.40;84.10
25468;DHT22;13384;24.794;110.498;2022-12-18T12:52:12;12.40;84.20
25468;DHT22;13384;24.794;110.498;2022-12-18T12:54:45;12.40;84.30
25468;DHT22;13384;24.794;110.498;2022-12-18T12:57:25;12.40;84.30
25468;DHT22;13384;24.794;110.498;2022-12-18T13:02:36;12.40;84.30
25468;DHT22;13384;24.794;110.498;2022-12-18T13:08:03;12.40;84.30
25468;DHT22;13384;24.794;110.498;2022-12-18T13:10:43;12.40;84.40
25468;DHT22;13384;24.794;110.498;2022-12-18T13:13:15;12.40;85.00
25468;DHT22;13384;24.794;110.498;2022-12-18T13:16:08;12.40;84.40
25468;DHT22;13384;24.794;110.498;2022-12-18T13:18:52;12.40;84.30
25468;DHT22;13384;24.794;110.498;2022-12-18T13:21:29;12.40;84.40
25468;DHT22;13384;24.794;110.498;2022-12-18T13:26:52;12.40;84.40
25468;DHT22;13384;24.794;110.498;2022-12-18T13:29:45;12.40;84.40
25468;DHT22;13384;24.794;110.498;2022-12-18T13:32:26;12.30;84.40
25468;DHT22;13384;24.794;110.498;2022-12-18T13:37:55;12.30;84.40
25468;DHT22;13384;24.794;110.498;2022-12-18T13:46:06;12.30;84.30
25468;DHT22;13384;24.794;110.498;2022-12-18T13:51:35;12.30;84.40
25468;DHT22;13384;24.794;110.498;2022-12-18T13:56:53;12.30;84.40
25468;DHT22;13384;24.794;110.498;2022-12-18T13:59:35;12.30;84.40
25468;DHT22;13384;24.794;110.498;2022-12-18T14:02:23;12.30;84.40
25468;DHT22;13384;24.794;110.498;2022-12-18T14:04:56;12.30;84.50
25468;DHT22;13384;24.794;110.498;2022-12-18T14:07:30;12.30;84.60
25468;DHT22;13384;24.794;110.498;2022-12-18T14:10:15;12.30;84.60
25468;DHT22;13384;24.794;110.498;2022-12-18T14:13:09;12.30;84.50
25468;DHT22;13384;24.794;110.498;2022-12-18T14:15:41;12.30;84.60
25468;DHT22;13384;24.794;110.498;2022-12-18T14:20:57;12.30;84.60
25468;DHT22;13384;24.794;110.498;2022-12-18T14:23:40;12.30;84.80
25468;DHT22;13384;24.794;110.498;2022-12-18T14:29:22;12.20;84.80
25468;DHT22;13384;24.794;110.498;2022-12-18T14:32:10;12.20;84.80
25468;DHT22;13384;24.794;110.498;2022-12-18T14:34:57;12.20;84.70
25468;DHT22;13384;24.794;110.498;2022-12-18T14:37:30;12.20;84.70
25468;DHT22;13384;24.794;110.498;2022-12-18T14:40:28;12.20;84.80
25468;DHT22;13384;24.794;110.498;2022-12-18T14:42:59;12.20;84.80
25468;DHT22;13384;24.794;110.498;2022-12-18T14:45:37;12.20;84.80
25468;DHT22;13384;24.794;110.498;2022-12-18T14:48:30;12.20;85.60
25468;DHT22;13384;24.794;110.498;2022-12-18T14:51:15;12.20;85.00
25468;DHT22;13384;24.794;110.498;2022-12-18T14:56:43;12.20;85.00
25468;DHT22;13384;24.794;110.498;2022-12-18T14:59:22;12.20;85.10
25468;DHT22;13384;24.794;110.498;2022-12-18T15:02:21;12.20;85.00
25468;DHT22;13384;24.794;110.498;2022-12-18T15:05:48;12.20;85.00
25468;DHT22;13384;24.794;110.498;2022-12-18T15:08:03;12.20;84.90
25468;DHT22;13384;24.794;110.498;2022-12-18T15:10:49;12.20;85.10
25468;DHT22;13384;24.794;110.498;2022-12-18T15:13:24;12.20;85.00
25468;DHT22;13384;24.794;110.498;2022-12-18T15:15:57;12.20;84.90
25468;DHT22;13384;24.794;110.498;2022-12-18T15:18:33;12.20;84.90
25468;DHT22;13384;24.794;110.498;2022-12-18T15:21:15;12.20;84.90
25468;DHT22;13384;24.794;110.498;2022-12-18T15:23:50;12.10;85.00
25468;DHT22;13384;24.794;110.498;2022-12-18T15:26:22;12.20;85.00
25468;DHT22;13384;24.794;110.498;2022-12-18T15:28:54;12.20;85.00
25468;DHT22;13384;24.794;110.498;2022-12-18T15:31:34;12.10;85.30
25468;DHT22;13384;24.794;110.498;2022-12-18T15:34:24;12.10;85.20
25468;DHT22;13384;24.794;110.498;2022-12-18T15:36:59;12.10;85.30
25468;DHT22;13384;24.794;110.498;2022-12-18T15:39:29;12.10;86.10
25468;DHT22;13384;24.794;110.498;2022-12-18T15:42:01;12.10;85.10
25468;DHT22;13384;24.794;110.498;2022-12-18T15:44:50;12.10;85.20
25468;DHT22;13384;24.794;110.498;2022-12-18T15:47:21;12.10;85.10
25468;DHT22;13384;24.794;110.498;2022-12-18T15:49:51;12.10;85.00
25468;DHT22;13384;24.794;110.498;2022-12-18T15:52:22;12.10;85.00
25468;DHT22;13384;24.794;110.498;2022-12-18T15:54:55;12.10;85.00
25468;DHT22;13384;24.794;110.498;2022-12-18T15:57:44;12.10;85.10
25468;DHT22;13384;24.794;110.498;2022-12-18T16:00:15;12.10;85.20
25468;DHT22;13384;24.794;110.498;2022-12-18T16:02:46;12.10;85.20
25468;DHT22;13384;24.794;110.498;2022-12-18T16:05:18;12.10;85.20
25468;DHT22;13384;24.794;110.498;2022-12-18T16:07:49;12.00;85.20
25468;DHT22;13384;24.794;110.498;2022-12-18T16:10:21;12.00;85.30
25468;DHT22;13384;24.794;110.498;2022-12-18T16:12:53;12.00;86.10
25468;DHT22;13384;24.794;110.498;2022-12-18T16:15:23;12.00;85.30
25468;DHT22;13384;24.794;110.498;2022-12-18T16:17:57;12.10;85.20
25468;DHT22;13384;24.794;110.498;2022-12-18T16:20:30;12.00;85.20
25468;DHT22;13384;24.794;110.498;2022-12-18T16:23:02;12.00;85.30
25468;DHT22;13384;24.794;110.498;2022-12-18T16:25:33;12.10;85.10
25468;DHT22;13384;24.794;110.498;2022-12-18T16:28:06;12.10;85.30
25468;DHT22;13384;24.794;110.498;2022-12-18T16:30:36;12.10;85.30
25468;DHT22;13384;24.794;110.498;2022-12-18T16:33:11;12.00;85.30
25468;DHT22;13384;24.794;110.498;2022-12-18T16:35:48;12.00;85.40
25468;DHT22;13384;24.794;110.498;2022-12-18T16:38:22;12.00;85.40
25468;DHT22;13384;24.794;110.498;2022-12-18T16:40:53;12.00;85.30
25468;DHT22;13384;24.794;110.498;2022-12-18T16:44:02;12.00;85.30
25468;DHT22;13384;24.794;110.498;2022-12-18T16:46:34;12.00;85.30
25468;DHT22;13384;24.794;110.498;2022-12-18T16:49:18;12.00;85.30
25468;DHT22;13384;24.794;110.498;2022-12-18T16:51:49;12.00;85.40
25468;DHT22;13384;24.794;110.498;2022-12-18T16:54:21;12.00;85.40
25468;DHT22;13384;24.794;110.498;2022-12-18T16:56:52;12.00;85.40
25468;DHT22;13384;24.794;110.498;2022-12-18T16:59:22;12.00;85.40
25468;DHT22;13384;24.794;110.498;2022-12-18T17:01:55;12.00;85.50
25468;DHT22;13384;24.794;110.498;2022-12-18T17:04:26;12.00;85.70
25468;DHT22;13384;24.794;110.498;2022-12-18T17:06:56;12.00;85.50
25468;DHT22;13384;24.794;110.498;2022-12-18T17:09:28;12.00;85.70
25468;DHT22;13384;24.794;110.498;2022-12-18T17:12:01;12.00;85.60
25468;DHT22;13384;24.794;110.498;2022-12-18T17:14:35;11.90;85.60
25468;DHT22;13384;24.794;110.498;2022-12-18T17:17:07;12.00;85.60
25468;DHT22;13384;24.794;110.498;2022-12-18T17:19:51;12.00;85.60
25468;DHT22;13384;24.794;110.498;2022-12-18T17:22:22;12.00;85.50
25468;DHT22;13384;24.794;110.498;2022-12-18T17:24:52;12.00;85.50
25468;DHT22;13384;24.794;110.498;2022-12-18T17:27:22;12.00;85.60
25468;DHT22;13384;24.794;110.498;2022-12-18T17:29:53;12.00;85.70
25468;DHT22;13384;24.794;110.498;2022-12-18T17:32:24;12.00;85.60
25468;DHT22;13384;24.794;110.498;2022-12-18T17:34:56;11.90;85.60
25468;DHT22;13384;24.794;110.498;2022-12-18T17:37:35;11.90;85.60
25468;DHT22;13384;24.794;110.498;2022-12-18T17:40:06;11.90;85.60
25468;DHT22;13384;24.794;110.498;2022-12-18T17:42:37;11.90;85.60
25468;DHT22;13384;24.794;110.498;2022-12-18T17:45:08;11.90;85.70
25468;DHT22;13384;24.794;110.498;2022-12-18T17:47:42;11.90;85.70
25468;DHT22;13384;24.794;110.498;2022-12-18T17:50:13;11.90;85.70
25468;DHT22;13384;24.794;110.498;2022-12-18T17:52:43;11.90;85.80
25468;DHT22;13384;24.794;110.498;2022-12-18T17:55:15;11.90;85.70